New Market, Pennsylvania
Current Conditions -  °F | °C
As of 12:56 AM on Tuesday 21 Oct 2014 (Local Time) from KCXY Reporting Station
Moderate Rain Moderate Rain  
Wind Chill: 54°   Ceiling: 6000
Heat Index: 54°   Visibility: 5mi
Dew Point: 50°   Wind: 7mph
Humidity: 86%   Direction: 150°SSE
Pressure: 29.91"   Gusts: NA
Location:  40.2034°N, 76.87°W
Report Text: KCXY 210456Z AUTO 15006KT 5SM RA BR FEW034 OVC060 12/10 A2991 RMK AO2 RAB10 SLP129 P0012 T01220100 401780022
Loading
Personal Weather Stations






























Interactive Weather Map
Tropical Storm Tracking
New forecast layout! Learn more

10-Day Weather Forecast

Advertisements
Track Severe Weather on mobile